createdAt,value
2022-09-20T00:00:00.441Z,101685
2022-09-20T00:01:03.954Z,101683
2022-09-20T00:02:00.255Z,101683
2022-09-20T00:03:00.267Z,101683
2022-09-20T00:04:01.108Z,101683
2022-09-20T00:05:00.363Z,101683
2022-09-20T00:06:01.052Z,101679
2022-09-20T00:07:00.272Z,101679
2022-09-20T00:08:00.868Z,101679
2022-09-20T00:09:00.392Z,101679
2022-09-20T00:10:00.290Z,101679
2022-09-20T00:11:01.219Z,101681
2022-09-20T00:12:00.415Z,101681
2022-09-20T00:13:00.915Z,101681
2022-09-20T00:14:00.937Z,101681
2022-09-20T00:15:00.275Z,101681
2022-09-20T00:16:03.620Z,101685
2022-09-20T00:17:00.372Z,101685
2022-09-20T00:18:00.269Z,101685
2022-09-20T00:19:01.151Z,101685
2022-09-20T00:20:00.445Z,101685
2022-09-20T00:21:00.381Z,101690
2022-09-20T00:22:00.317Z,101690
2022-09-20T00:23:00.293Z,101690
2022-09-20T00:24:00.359Z,101690
2022-09-20T00:25:00.295Z,101690
2022-09-20T00:26:01.120Z,101691
2022-09-20T00:27:00.339Z,101691
2022-09-20T00:28:00.359Z,101691
2022-09-20T00:29:00.293Z,101691
2022-09-20T00:30:00.474Z,101691
2022-09-20T00:31:00.404Z,101704
2022-09-20T00:32:00.473Z,101704
2022-09-20T00:33:00.326Z,101704
2022-09-20T00:34:00.252Z,101704
2022-09-20T00:35:00.259Z,101704
2022-09-20T00:36:00.347Z,101709
2022-09-20T00:37:00.260Z,101709
2022-09-20T00:38:00.265Z,101709
2022-09-20T00:39:01.795Z,101709
2022-09-20T00:40:01.019Z,101709
2022-09-20T00:41:00.257Z,101703
2022-09-20T00:42:00.306Z,101703
2022-09-20T00:43:00.274Z,101703
2022-09-20T00:44:00.379Z,101703
2022-09-20T00:45:01.122Z,101703
2022-09-20T00:46:01.706Z,101708
2022-09-20T00:47:00.960Z,101708
2022-09-20T00:48:00.250Z,101708
2022-09-20T00:49:07.760Z,101708
2022-09-20T00:50:07.663Z,101708
2022-09-20T00:51:06.081Z,101713
2022-09-20T00:52:01.169Z,101713
2022-09-20T00:53:06.119Z,101713
2022-09-20T00:54:03.478Z,101713
2022-09-20T00:55:02.972Z,101713
2022-09-20T00:56:02.832Z,101716
2022-09-20T00:57:00.495Z,101716
2022-09-20T00:58:00.554Z,101716
2022-09-20T00:59:07.747Z,101716
2022-09-20T01:00:01.027Z,101716
2022-09-20T01:01:00.328Z,101717
2022-09-20T01:02:03.635Z,101717
2022-09-20T01:03:02.156Z,101717
2022-09-20T01:04:00.456Z,101717
2022-09-20T01:05:00.371Z,101717
2022-09-20T01:06:03.122Z,101725
2022-09-20T01:07:01.919Z,101725
2022-09-20T01:08:00.672Z,101725
2022-09-20T01:09:02.159Z,101725
2022-09-20T01:10:00.515Z,101725
2022-09-20T01:11:00.790Z,101726
2022-09-20T01:12:02.387Z,101726
2022-09-20T01:13:00.280Z,101726
2022-09-20T01:14:00.404Z,101726
2022-09-20T01:15:02.601Z,101726
2022-09-20T01:16:01.616Z,101726
2022-09-20T01:17:02.950Z,101726
2022-09-20T01:18:01.302Z,101726
2022-09-20T01:19:06.273Z,101726
2022-09-20T01:20:10.211Z,101726
2022-09-20T01:21:01.037Z,101728
2022-09-20T01:22:03.240Z,101728
2022-09-20T01:23:10.171Z,101728
2022-09-20T01:24:03.702Z,101728
2022-09-20T01:25:10.193Z,101728
2022-09-20T01:26:10.174Z,101724
2022-09-20T01:27:00.256Z,101724
2022-09-20T01:28:00.389Z,101724
2022-09-20T01:29:01.313Z,101724
2022-09-20T01:30:08.616Z,101724
2022-09-20T01:31:05.381Z,101725
2022-09-20T01:32:02.057Z,101725
2022-09-20T01:33:08.334Z,101725
2022-09-20T01:34:07.217Z,101725
2022-09-20T01:35:00.595Z,101725
2022-09-20T01:36:02.833Z,101721
2022-09-20T01:37:09.111Z,101721
2022-09-20T01:38:10.179Z,101721
2022-09-20T01:39:07.276Z,101721
2022-09-20T01:40:10.287Z,101721
2022-09-20T01:41:03.649Z,101721
2022-09-20T01:42:05.327Z,101721
2022-09-20T01:43:08.386Z,101721
2022-09-20T01:44:10.176Z,101721
2022-09-20T01:45:06.711Z,101721
2022-09-20T01:46:04.375Z,101724
2022-09-20T01:47:07.791Z,101724
2022-09-20T01:48:10.208Z,101724
2022-09-20T01:49:06.441Z,101724
2022-09-20T01:50:07.843Z,101724
2022-09-20T01:51:10.173Z,101722
2022-09-20T01:52:10.172Z,101722
2022-09-20T01:53:10.173Z,101722
2022-09-20T01:54:10.188Z,101722
2022-09-20T01:55:10.188Z,101722
2022-09-20T01:56:11.083Z,101723
2022-09-20T01:57:07.847Z,101723
2022-09-20T01:58:10.167Z,101723
2022-09-20T01:59:22.511Z,101723
2022-09-20T02:00:00.309Z,101723
2022-09-20T02:01:10.216Z,101720
2022-09-20T02:02:10.239Z,101720
2022-09-20T02:03:07.788Z,101720
2022-09-20T02:04:10.164Z,101720
2022-09-20T02:05:10.197Z,101720
2022-09-20T02:06:10.179Z,101719
2022-09-20T02:07:00.253Z,101719
2022-09-20T02:08:10.190Z,101719
2022-09-20T02:09:01.249Z,101719
2022-09-20T02:10:00.285Z,101719
2022-09-20T02:11:10.169Z,101712
2022-09-20T02:12:10.163Z,101712
2022-09-20T02:13:03.198Z,101712
2022-09-20T02:14:10.186Z,101712
2022-09-20T02:15:00.246Z,101712
2022-09-20T02:16:01.280Z,101712
2022-09-20T02:17:07.018Z,101712
2022-09-20T02:18:00.243Z,101712
2022-09-20T02:19:10.163Z,101712
2022-09-20T02:20:06.916Z,101712
2022-09-20T02:21:08.981Z,101709
2022-09-20T02:22:09.258Z,101709
2022-09-20T02:23:10.264Z,101709
2022-09-20T02:24:01.283Z,101709
2022-09-20T02:25:06.615Z,101709
2022-09-20T02:26:00.256Z,101708
2022-09-20T02:27:10.177Z,101708
2022-09-20T02:28:01.283Z,101708
2022-09-20T02:29:05.281Z,101708
2022-09-20T02:30:10.208Z,101708
2022-09-20T02:31:03.526Z,101706
2022-09-20T02:32:10.178Z,101706
2022-09-20T02:33:10.031Z,101706
2022-09-20T02:34:07.585Z,101706
2022-09-20T02:35:07.787Z,101706
2022-09-20T02:36:01.281Z,101704
2022-09-20T02:37:10.181Z,101704
2022-09-20T02:38:10.177Z,101704
2022-09-20T02:39:10.171Z,101704
2022-09-20T02:40:10.236Z,101704
2022-09-20T02:41:10.170Z,101702
2022-09-20T02:42:10.171Z,101702
2022-09-20T02:43:07.601Z,101702
2022-09-20T02:44:03.558Z,101702
2022-09-20T02:45:08.254Z,101702
2022-09-20T02:46:05.287Z,101703
2022-09-20T02:47:10.167Z,101703
2022-09-20T02:48:03.308Z,101703
2022-09-20T02:49:04.948Z,101703
2022-09-20T02:50:10.163Z,101703
2022-09-20T02:51:08.681Z,101697
2022-09-20T02:52:10.171Z,101697
2022-09-20T02:53:10.174Z,101697
2022-09-20T02:54:03.601Z,101697
2022-09-20T02:55:10.201Z,101697
2022-09-20T02:56:00.257Z,101700
2022-09-20T02:57:00.243Z,101700
2022-09-20T02:58:10.167Z,101700
2022-09-20T02:59:04.797Z,101700
2022-09-20T03:00:04.236Z,101700
2022-09-20T03:01:10.225Z,101695
2022-09-20T03:02:00.259Z,101695
2022-09-20T03:03:00.240Z,101695
2022-09-20T03:04:10.179Z,101695
2022-09-20T03:05:10.186Z,101695
2022-09-20T03:06:06.295Z,101699
2022-09-20T03:07:05.944Z,101699
2022-09-20T03:08:10.173Z,101699
2022-09-20T03:09:10.168Z,101699
2022-09-20T03:10:00.259Z,101699
2022-09-20T03:11:10.210Z,101695
2022-09-20T03:12:09.421Z,101695
2022-09-20T03:13:10.168Z,101695
2022-09-20T03:14:10.172Z,101695
2022-09-20T03:15:10.175Z,101695
2022-09-20T03:16:07.776Z,101694
2022-09-20T03:17:05.915Z,101694
2022-09-20T03:18:10.197Z,101694
2022-09-20T03:19:07.626Z,101694
2022-09-20T03:20:03.652Z,101694
2022-09-20T03:21:03.626Z,101692
2022-09-20T03:22:08.507Z,101692
2022-09-20T03:23:10.183Z,101692
2022-09-20T03:24:07.960Z,101692
2022-09-20T03:25:10.210Z,101692
2022-09-20T03:26:10.168Z,101695
2022-09-20T03:27:06.569Z,101695
2022-09-20T03:28:00.261Z,101695
2022-09-20T03:29:10.191Z,101695
2022-09-20T03:30:01.302Z,101695
2022-09-20T03:31:01.315Z,101698
2022-09-20T03:32:00.302Z,101698
2022-09-20T03:33:10.202Z,101698
2022-09-20T03:34:01.272Z,101698
2022-09-20T03:35:10.206Z,101698
2022-09-20T03:36:08.204Z,101696
2022-09-20T03:37:10.171Z,101696
2022-09-20T03:38:03.553Z,101696
2022-09-20T03:39:08.995Z,101696
2022-09-20T03:40:01.356Z,101696
2022-09-20T03:41:10.198Z,101694
2022-09-20T03:42:07.723Z,101694
2022-09-20T03:43:10.160Z,101694
2022-09-20T03:44:10.178Z,101694
2022-09-20T03:45:10.209Z,101694
2022-09-20T03:46:10.228Z,101692
2022-09-20T03:47:10.188Z,101692
2022-09-20T03:48:10.192Z,101692
2022-09-20T03:49:10.180Z,101692
2022-09-20T03:50:00.250Z,101692
2022-09-20T03:51:01.278Z,101692
2022-09-20T03:52:03.559Z,101692
2022-09-20T03:53:10.177Z,101692
2022-09-20T03:54:00.245Z,101692
2022-09-20T03:55:07.755Z,101692
2022-09-20T03:56:10.173Z,101694
2022-09-20T03:57:00.241Z,101694
2022-09-20T03:58:00.265Z,101694
2022-09-20T03:59:10.171Z,101694
2022-09-20T04:00:00.279Z,101694
2022-09-20T04:01:01.314Z,101689
2022-09-20T04:02:08.117Z,101689
2022-09-20T04:03:10.182Z,101689
2022-09-20T04:04:00.252Z,101689
2022-09-20T04:05:10.203Z,101689
2022-09-20T04:06:10.227Z,101691
2022-09-20T04:07:08.057Z,101691
2022-09-20T04:08:10.177Z,101691
2022-09-20T04:09:10.173Z,101691
2022-09-20T04:10:05.186Z,101691
2022-09-20T04:11:10.181Z,101689
2022-09-20T04:12:00.247Z,101689
2022-09-20T04:13:10.203Z,101689
2022-09-20T04:14:11.562Z,101689
2022-09-20T04:15:08.033Z,101689
2022-09-20T04:16:10.217Z,101687
2022-09-20T04:17:10.173Z,101687
2022-09-20T04:18:06.960Z,101687
2022-09-20T04:19:10.199Z,101687
2022-09-20T04:20:07.781Z,101687
2022-09-20T04:21:07.253Z,101689
2022-09-20T04:22:01.042Z,101689
2022-09-20T04:23:03.029Z,101689
2022-09-20T04:24:10.170Z,101689
2022-09-20T04:25:10.213Z,101689
2022-09-20T04:26:01.189Z,101688
2022-09-20T04:27:03.188Z,101688
2022-09-20T04:28:07.949Z,101688
2022-09-20T04:29:00.256Z,101688
2022-09-20T04:30:03.893Z,101688
2022-09-20T04:31:04.932Z,101689
2022-09-20T04:32:10.248Z,101689
2022-09-20T04:33:10.183Z,101689
2022-09-20T04:34:01.289Z,101689
2022-09-20T04:35:01.339Z,101689
2022-09-20T04:36:10.164Z,101688
2022-09-20T04:37:01.589Z,101688
2022-09-20T04:38:01.860Z,101688
2022-09-20T04:39:03.606Z,101688
2022-09-20T04:40:10.315Z,101688
2022-09-20T04:41:01.280Z,101687
2022-09-20T04:42:10.169Z,101687
2022-09-20T04:43:03.600Z,101687
2022-09-20T04:44:10.170Z,101687
2022-09-20T04:45:10.173Z,101687
2022-09-20T04:46:00.321Z,101676
2022-09-20T04:47:03.624Z,101676
2022-09-20T04:48:03.603Z,101676
2022-09-20T04:49:10.173Z,101676
2022-09-20T04:50:10.192Z,101676
2022-09-20T04:51:01.262Z,101675
2022-09-20T04:52:01.282Z,101675
2022-09-20T04:53:10.181Z,101675
2022-09-20T04:54:07.756Z,101675
2022-09-20T04:55:10.193Z,101675
2022-09-20T04:56:02.070Z,101672
2022-09-20T04:57:00.244Z,101672
2022-09-20T04:58:01.277Z,101672
2022-09-20T04:59:08.376Z,101672
2022-09-20T05:00:03.958Z,101672
2022-09-20T05:01:00.340Z,101671
2022-09-20T05:02:03.761Z,101671
2022-09-20T05:03:10.177Z,101671
2022-09-20T05:04:00.265Z,101671
2022-09-20T05:05:03.635Z,101671
2022-09-20T05:06:10.168Z,101670
2022-09-20T05:07:00.247Z,101670
2022-09-20T05:08:10.174Z,101670
2022-09-20T05:09:10.495Z,101670
2022-09-20T05:10:10.201Z,101670
2022-09-20T05:11:07.530Z,101670
2022-09-20T05:12:00.247Z,101670
2022-09-20T05:13:10.167Z,101670
2022-09-20T05:14:10.172Z,101670
2022-09-20T05:15:00.242Z,101670
2022-09-20T05:16:07.607Z,101673
2022-09-20T05:17:00.353Z,101673
2022-09-20T05:18:10.177Z,101673
2022-09-20T05:19:07.555Z,101673
2022-09-20T05:20:10.183Z,101673
2022-09-20T05:21:10.184Z,101676
2022-09-20T05:22:10.178Z,101676
2022-09-20T05:23:01.243Z,101676
2022-09-20T05:24:09.556Z,101676
2022-09-20T05:25:01.315Z,101676
2022-09-20T05:26:07.706Z,101673
2022-09-20T05:27:10.169Z,101673
2022-09-20T05:28:03.555Z,101673
2022-09-20T05:29:06.007Z,101673
2022-09-20T05:30:04.877Z,101673
2022-09-20T05:31:05.126Z,101682
2022-09-20T05:32:00.392Z,101682
2022-09-20T05:33:01.251Z,101682
2022-09-20T05:34:10.165Z,101682
2022-09-20T05:35:10.209Z,101682
2022-09-20T05:36:01.282Z,101680
2022-09-20T05:37:06.189Z,101680
2022-09-20T05:38:10.177Z,101680
2022-09-20T05:39:10.189Z,101680
2022-09-20T05:40:05.059Z,101680
2022-09-20T05:41:10.171Z,101682
2022-09-20T05:42:10.166Z,101682
2022-09-20T05:43:06.116Z,101682
2022-09-20T05:44:10.173Z,101682
2022-09-20T05:45:10.195Z,101682
2022-09-20T05:46:10.229Z,101687
2022-09-20T05:47:01.281Z,101687
2022-09-20T05:48:09.241Z,101687
2022-09-20T05:49:10.173Z,101687
2022-09-20T05:50:10.197Z,101687
2022-09-20T05:51:10.175Z,101692
2022-09-20T05:52:10.176Z,101692
2022-09-20T05:53:01.271Z,101692
2022-09-20T05:54:10.175Z,101692
2022-09-20T05:55:10.198Z,101692
2022-09-20T05:56:00.255Z,101696
2022-09-20T05:57:03.509Z,101696
2022-09-20T05:58:07.707Z,101696
2022-09-20T05:59:00.274Z,101696
2022-09-20T06:00:01.409Z,101696
2022-09-20T06:01:00.348Z,101699
2022-09-20T06:02:10.233Z,101699
2022-09-20T06:03:10.192Z,101699
2022-09-20T06:04:10.210Z,101699
2022-09-20T06:05:10.198Z,101699
2022-09-20T06:06:05.852Z,101704
2022-09-20T06:07:06.714Z,101704
2022-09-20T06:08:00.297Z,101704
2022-09-20T06:09:00.270Z,101704
2022-09-20T06:10:10.189Z,101704
2022-09-20T06:11:00.250Z,101709
2022-09-20T06:12:01.301Z,101709
2022-09-20T06:13:10.189Z,101709
2022-09-20T06:14:00.254Z,101709
2022-09-20T06:15:10.209Z,101709
2022-09-20T06:16:01.676Z,101712
2022-09-20T06:17:01.318Z,101712
2022-09-20T06:18:10.173Z,101712
2022-09-20T06:19:10.174Z,101712
2022-09-20T06:20:10.189Z,101712
2022-09-20T06:21:01.285Z,101720
2022-09-20T06:22:04.665Z,101720
2022-09-20T06:23:02.534Z,101720
2022-09-20T06:24:00.792Z,101720
2022-09-20T06:25:07.669Z,101720
2022-09-20T06:26:03.498Z,101725
2022-09-20T06:27:03.552Z,101725
2022-09-20T06:28:05.117Z,101725
2022-09-20T06:29:03.262Z,101725
2022-09-20T06:30:03.542Z,101725
2022-09-20T06:31:00.424Z,101727
2022-09-20T06:32:00.465Z,101727
2022-09-20T06:33:10.178Z,101727
2022-09-20T06:34:03.415Z,101727
2022-09-20T06:35:01.600Z,101727
2022-09-20T06:36:03.609Z,101727
2022-09-20T06:37:10.169Z,101727
2022-09-20T06:38:10.187Z,101727
2022-09-20T06:39:00.246Z,101727
2022-09-20T06:40:00.406Z,101727
2022-09-20T06:41:00.486Z,101730
2022-09-20T06:42:00.551Z,101730
2022-09-20T06:43:00.304Z,101730
2022-09-20T06:44:00.966Z,101730
2022-09-20T06:45:00.515Z,101730
2022-09-20T06:46:00.323Z,101730
2022-09-20T06:47:00.277Z,101730
2022-09-20T06:48:00.338Z,101730
2022-09-20T06:49:00.762Z,101730
2022-09-20T06:50:00.326Z,101730
2022-09-20T06:51:00.354Z,101734
2022-09-20T06:52:00.853Z,101734
2022-09-20T06:53:00.416Z,101734
2022-09-20T06:54:00.403Z,101734
2022-09-20T06:55:00.289Z,101734
2022-09-20T06:56:00.810Z,101736
2022-09-20T06:57:03.806Z,101736
2022-09-20T06:58:00.295Z,101736
2022-09-20T06:59:00.258Z,101736
2022-09-20T07:00:00.456Z,101736
2022-09-20T07:01:00.332Z,101735
2022-09-20T07:02:00.331Z,101735
2022-09-20T07:03:00.288Z,101735
2022-09-20T07:04:00.400Z,101735
2022-09-20T07:05:00.398Z,101735
2022-09-20T07:06:00.796Z,101744
2022-09-20T07:07:02.629Z,101744
2022-09-20T07:08:00.401Z,101744
2022-09-20T07:09:00.594Z,101744
2022-09-20T07:10:00.275Z,101744
2022-09-20T07:11:04.489Z,101745
2022-09-20T07:12:00.350Z,101745
2022-09-20T07:13:01.082Z,101745
2022-09-20T07:14:00.692Z,101745
2022-09-20T07:15:00.307Z,101745
2022-09-20T07:16:01.822Z,101748
2022-09-20T07:17:00.260Z,101748
2022-09-20T07:18:00.284Z,101748
2022-09-20T07:19:00.266Z,101748
2022-09-20T07:20:00.374Z,101748
2022-09-20T07:21:00.656Z,101749
2022-09-20T07:22:00.263Z,101749
2022-09-20T07:23:00.337Z,101749
2022-09-20T07:24:00.368Z,101749
2022-09-20T07:25:00.272Z,101749
2022-09-20T07:26:00.274Z,101747
2022-09-20T07:27:01.179Z,101747
2022-09-20T07:28:00.341Z,101747
2022-09-20T07:29:00.628Z,101747
2022-09-20T07:30:00.305Z,101747
2022-09-20T07:31:00.347Z,101752
2022-09-20T07:32:00.431Z,101752
2022-09-20T07:33:00.274Z,101752
2022-09-20T07:34:00.266Z,101752
2022-09-20T07:35:00.604Z,101752
2022-09-20T07:36:00.373Z,101756
2022-09-20T07:37:00.273Z,101756
2022-09-20T07:38:00.286Z,101756
2022-09-20T07:39:00.260Z,101756
2022-09-20T07:40:00.506Z,101756
2022-09-20T07:41:01.014Z,101760
2022-09-20T07:42:00.283Z,101760
2022-09-20T07:43:00.263Z,101760
2022-09-20T07:44:00.381Z,101760
2022-09-20T07:45:00.301Z,101760
2022-09-20T07:46:00.595Z,101758
2022-09-20T07:47:00.290Z,101758
2022-09-20T07:48:00.898Z,101758
2022-09-20T07:49:00.270Z,101758
2022-09-20T07:50:00.431Z,101758
2022-09-20T07:51:06.751Z,101756
2022-09-20T07:52:00.405Z,101756
2022-09-20T07:53:00.447Z,101756
2022-09-20T07:54:00.279Z,101756
2022-09-20T07:55:00.268Z,101756
2022-09-20T07:56:00.300Z,101760
2022-09-20T07:57:00.279Z,101760
2022-09-20T07:58:00.285Z,101760
2022-09-20T07:59:00.311Z,101760
2022-09-20T08:00:00.481Z,101760
2022-09-20T08:01:01.199Z,101747
2022-09-20T08:02:00.278Z,101747
2022-09-20T08:03:00.267Z,101747
2022-09-20T08:04:00.403Z,101747
2022-09-20T08:05:00.345Z,101747
2022-09-20T08:06:03.027Z,101753
2022-09-20T08:07:00.263Z,101753
2022-09-20T08:08:00.341Z,101753
2022-09-20T08:09:00.358Z,101753
2022-09-20T08:10:00.373Z,101753
2022-09-20T08:11:02.727Z,101767
2022-09-20T08:14:05.352Z,101767
2022-09-20T08:14:05.857Z,101767
2022-09-20T08:15:00.262Z,101767
2022-09-20T08:16:04.739Z,101771
2022-09-20T08:17:00.359Z,101771
2022-09-20T08:18:00.281Z,101771
2022-09-20T08:19:01.462Z,101771
2022-09-20T08:20:00.329Z,101771
2022-09-20T08:21:04.049Z,101784
2022-09-20T08:22:00.280Z,101784
2022-09-20T08:23:21.971Z,101784
2022-09-20T08:24:00.378Z,101784
2022-09-20T08:25:00.290Z,101784
2022-09-20T08:26:00.397Z,101791
2022-09-20T08:27:00.291Z,101791
2022-09-20T08:28:00.357Z,101791
2022-09-20T08:29:00.302Z,101791
2022-09-20T08:30:00.331Z,101791
2022-09-20T08:31:04.345Z,101799
2022-09-20T08:32:00.408Z,101799
2022-09-20T08:33:02.272Z,101799
2022-09-20T08:34:00.767Z,101799
2022-09-20T08:35:00.272Z,101799
2022-09-20T08:36:00.371Z,101802
2022-09-20T08:37:00.267Z,101802
2022-09-20T08:39:57.073Z,101802
2022-09-20T08:40:00.678Z,101802
2022-09-20T08:41:04.227Z,101799
2022-09-20T08:42:10.170Z,101799
2022-09-20T08:43:05.293Z,101799
2022-09-20T08:44:01.357Z,101799
2022-09-20T08:45:02.305Z,101799
2022-09-20T08:46:05.458Z,101800
2022-09-20T08:47:05.839Z,101800
2022-09-20T08:48:02.005Z,101800
2022-09-20T08:49:02.716Z,101800
2022-09-20T08:50:09.829Z,101800
2022-09-20T08:51:05.656Z,101795
2022-09-20T08:52:01.294Z,101795
2022-09-20T08:53:01.313Z,101795
2022-09-20T08:54:00.480Z,101795
2022-09-20T08:55:00.343Z,101795
2022-09-20T08:56:00.357Z,101801
2022-09-20T08:57:01.322Z,101801
2022-09-20T08:58:02.936Z,101801
2022-09-20T08:59:00.278Z,101801
2022-09-20T09:00:01.192Z,101801
2022-09-20T09:01:00.774Z,101807
2022-09-20T09:02:00.313Z,101807
2022-09-20T09:03:03.618Z,101807
2022-09-20T09:04:10.168Z,101807
2022-09-20T09:05:02.041Z,101807
2022-09-20T09:06:00.265Z,101797
2022-09-20T09:07:00.285Z,101797
2022-09-20T09:08:04.620Z,101797
2022-09-20T09:09:00.375Z,101797
2022-09-20T09:10:00.315Z,101797
2022-09-20T09:11:03.216Z,101793
2022-09-20T09:12:00.442Z,101793
2022-09-20T09:13:00.336Z,101793
2022-09-20T09:14:03.079Z,101793
2022-09-20T09:15:04.710Z,101793
2022-09-20T09:16:01.663Z,101801
2022-09-20T09:17:00.348Z,101801
2022-09-20T09:18:00.794Z,101801
2022-09-20T09:19:10.184Z,101801
2022-09-20T09:20:10.194Z,101801
2022-09-20T09:21:00.656Z,101799
2022-09-20T09:22:01.298Z,101799
2022-09-20T09:23:03.851Z,101799
2022-09-20T09:24:03.348Z,101799
2022-09-20T09:25:07.934Z,101799
2022-09-20T09:26:02.156Z,101806
2022-09-20T09:27:10.175Z,101806
2022-09-20T09:28:02.654Z,101806
2022-09-20T09:29:10.185Z,101806
2022-09-20T09:30:00.490Z,101806
2022-09-20T09:31:10.174Z,101805
2022-09-20T09:32:10.251Z,101805
2022-09-20T09:33:10.250Z,101805
2022-09-20T09:34:00.268Z,101805
2022-09-20T09:35:10.191Z,101805
2022-09-20T09:36:03.581Z,101804
2022-09-20T09:37:00.338Z,101804
2022-09-20T09:38:01.026Z,101804
2022-09-20T09:39:10.200Z,101804
2022-09-20T09:40:10.231Z,101804
2022-09-20T09:41:01.320Z,101805
2022-09-20T09:42:10.169Z,101805
2022-09-20T09:43:01.829Z,101805
2022-09-20T09:44:01.495Z,101805
2022-09-20T09:45:10.199Z,101805
2022-09-20T09:46:10.212Z,101798
2022-09-20T09:47:00.756Z,101798
2022-09-20T09:48:00.962Z,101798
2022-09-20T09:49:03.566Z,101798
2022-09-20T09:50:03.710Z,101798
2022-09-20T09:51:09.488Z,101799
2022-09-20T09:52:00.256Z,101799
2022-09-20T09:53:02.527Z,101799
2022-09-20T09:54:00.971Z,101799
2022-09-20T09:55:04.357Z,101799
2022-09-20T09:56:14.012Z,101797
2022-09-20T09:57:10.170Z,101797
2022-09-20T09:58:06.065Z,101797
2022-09-20T09:59:01.288Z,101797
2022-09-20T10:00:15.630Z,101797
2022-09-20T10:01:01.986Z,101794
2022-09-20T10:02:00.302Z,101794
2022-09-20T10:03:10.201Z,101794
2022-09-20T10:04:05.800Z,101794
2022-09-20T10:05:03.599Z,101794
2022-09-20T10:06:10.171Z,101797
2022-09-20T10:07:04.699Z,101797
2022-09-20T10:08:10.191Z,101797
2022-09-20T10:09:03.561Z,101797
2022-09-20T10:10:10.181Z,101797
2022-09-20T10:11:00.260Z,101802
2022-09-20T10:12:10.197Z,101802
2022-09-20T10:13:10.173Z,101802
2022-09-20T10:14:10.184Z,101802
2022-09-20T10:15:01.288Z,101802
2022-09-20T10:16:10.220Z,101797
2022-09-20T10:17:00.281Z,101797
2022-09-20T10:18:01.257Z,101797
2022-09-20T10:19:10.174Z,101797
2022-09-20T10:20:00.291Z,101797
2022-09-20T10:21:05.736Z,101799
2022-09-20T10:22:08.684Z,101799
2022-09-20T10:23:34.513Z,101799
2022-09-20T10:24:10.173Z,101799
2022-09-20T10:25:10.185Z,101799
2022-09-20T10:26:10.176Z,101797
2022-09-20T10:27:08.502Z,101797
2022-09-20T10:28:00.276Z,101797
2022-09-20T10:29:10.185Z,101797
2022-09-20T10:30:07.712Z,101797
2022-09-20T10:31:10.290Z,101790
2022-09-20T10:32:00.271Z,101790
2022-09-20T10:33:10.188Z,101790
2022-09-20T10:34:10.182Z,101790
2022-09-20T10:35:10.209Z,101790
2022-09-20T10:36:00.257Z,101787
2022-09-20T10:37:00.498Z,101787
2022-09-20T10:38:07.721Z,101787
2022-09-20T10:39:03.598Z,101787
2022-09-20T10:40:08.395Z,101787
2022-09-20T10:41:10.172Z,101790
2022-09-20T10:42:10.169Z,101790
2022-09-20T10:43:07.846Z,101790
2022-09-20T10:44:10.188Z,101790
2022-09-20T10:45:00.275Z,101790
2022-09-20T10:47:10.203Z,101783
2022-09-20T10:48:10.176Z,101783
2022-09-20T10:49:03.223Z,101783
2022-09-20T10:50:00.278Z,101783
2022-09-20T10:51:07.387Z,101784
2022-09-20T10:52:10.176Z,101784
2022-09-20T10:53:00.299Z,101784
2022-09-20T10:54:10.185Z,101784
2022-09-20T10:55:10.188Z,101784
2022-09-20T10:56:00.281Z,101780
2022-09-20T10:57:10.175Z,101780
2022-09-20T10:58:03.565Z,101780
2022-09-20T10:59:10.173Z,101780
2022-09-20T11:00:10.245Z,101780
2022-09-20T11:01:07.969Z,101779
2022-09-20T11:02:10.249Z,101779
2022-09-20T11:03:01.251Z,101779
2022-09-20T11:04:10.170Z,101779
2022-09-20T11:05:10.201Z,101779
2022-09-20T11:06:10.187Z,101775
2022-09-20T11:07:02.271Z,101775
2022-09-20T11:08:03.560Z,101775
2022-09-20T11:09:01.771Z,101775
2022-09-20T11:10:03.709Z,101775
2022-09-20T11:11:10.176Z,101776
2022-09-20T11:12:00.255Z,101776
2022-09-20T11:13:02.755Z,101776
2022-09-20T11:14:03.567Z,101776
2022-09-20T11:15:03.791Z,101776
2022-09-20T11:16:04.363Z,101773
2022-09-20T11:17:05.108Z,101773
2022-09-20T11:18:10.177Z,101773
2022-09-20T11:19:04.102Z,101773
2022-09-20T11:20:07.226Z,101773
2022-09-20T11:21:05.049Z,101768
2022-09-20T11:22:00.257Z,101768
2022-09-20T11:23:00.271Z,101768
2022-09-20T11:24:04.424Z,101768
2022-09-20T11:25:10.224Z,101768
2022-09-20T11:26:06.683Z,101760
2022-09-20T11:27:04.633Z,101760
2022-09-20T11:28:06.769Z,101760
2022-09-20T11:29:04.078Z,101760
2022-09-20T11:30:00.285Z,101760
2022-09-20T11:31:06.105Z,101766
2022-09-20T11:32:05.410Z,101766
2022-09-20T11:33:01.287Z,101766
2022-09-20T11:34:09.275Z,101766
2022-09-20T11:35:07.616Z,101766
2022-09-20T11:36:02.126Z,101763
2022-09-20T11:37:01.003Z,101763
2022-09-20T11:38:07.526Z,101763
2022-09-20T11:39:04.471Z,101763
2022-09-20T11:40:10.278Z,101763
2022-09-20T11:41:08.257Z,101763
2022-09-20T11:42:01.147Z,101763
2022-09-20T11:43:02.795Z,101763
2022-09-20T11:44:03.758Z,101763
2022-09-20T11:45:00.357Z,101763
2022-09-20T11:46:03.399Z,101760
2022-09-20T11:47:05.175Z,101760
2022-09-20T11:48:08.895Z,101760
2022-09-20T11:49:08.677Z,101760
2022-09-20T11:50:10.172Z,101760
2022-09-20T11:51:00.348Z,101763
2022-09-20T11:52:07.787Z,101763
2022-09-20T11:53:10.195Z,101763
2022-09-20T11:54:10.170Z,101763
2022-09-20T11:55:00.257Z,101763
2022-09-20T11:56:09.773Z,101757
2022-09-20T11:57:00.345Z,101757
2022-09-20T11:58:01.917Z,101757
2022-09-20T11:59:02.698Z,101757
2022-09-20T12:00:01.598Z,101757
2022-09-20T12:01:00.283Z,101760
2022-09-20T12:02:02.561Z,101760
2022-09-20T12:03:01.819Z,101760
2022-09-20T12:04:30.795Z,101760
2022-09-20T12:05:00.778Z,101760
2022-09-20T12:06:01.469Z,101761
2022-09-20T12:07:08.951Z,101761
2022-09-20T12:08:02.208Z,101761
2022-09-20T12:09:02.892Z,101761
2022-09-20T12:10:02.612Z,101761
2022-09-20T12:11:02.604Z,101762
2022-09-20T12:12:10.175Z,101762
2022-09-20T12:13:10.182Z,101762
2022-09-20T12:14:10.170Z,101762
2022-09-20T12:15:01.649Z,101762
2022-09-20T12:16:02.543Z,101760
2022-09-20T12:17:00.285Z,101760
2022-09-20T12:18:06.759Z,101760
2022-09-20T12:19:02.661Z,101760
2022-09-20T12:20:00.336Z,101760
2022-09-20T12:21:03.567Z,101760
2022-09-20T12:22:00.276Z,101760
2022-09-20T12:23:10.197Z,101760
2022-09-20T12:24:09.191Z,101760
2022-09-20T12:25:10.167Z,101760
2022-09-20T12:26:00.313Z,101754
2022-09-20T12:27:01.430Z,101754
2022-09-20T12:28:00.373Z,101754
2022-09-20T12:29:08.101Z,101754
2022-09-20T12:30:04.103Z,101754
2022-09-20T12:31:10.178Z,101754